Time;durP1;ratioP1;P1;durP2;ratioP2;P2;SDS_P1;SDS_P2;PMS_P1;PMS_P2;Temp;Humidity;BMP_temperature;BMP_pressure;BME280_temperature;BME280_humidity;BME280_pressure;Samples;Min_cycle;Max_cycle;Signal;HPM_P1;HPM_P2
2022/03/31 00:01:03;;;;;;;;;;;;;;;;;;;;;
2022/03/31 00:04:09;;;;;;;18.80;15.40;;;;;;;2.44;61.81;99256.58;110413;1256;22745;-76
2022/03/31 00:06:39;;;;;;;19.20;15.00;;;;;;;2.44;61.82;99253.31;110031;1256;21981;-76
2022/03/31 00:09:50;;;;;;;16.70;14.90;;;;;;;2.45;61.88;99255.80;110386;1256;22465;-76
2022/03/31 00:12:43;;;;;;;;;;;;;;;;;;;;;
2022/03/31 00:15:21;;;;;;;14.70;12.80;;;;;;;2.44;61.86;99256.96;110377;1255;22741;-76
2022/03/31 00:18:14;;;;;;;17.10;13.80;;;;;;;2.38;61.65;99259.27;110543;1256;21970;-76
2022/03/31 00:24:46;;;;;;;17.50;14.50;;;;;;;2.22;61.87;99253.83;110866;1250;21953;-75
2022/03/31 00:27:22;;;;;;;16.20;13.80;;;;;;;2.19;61.94;99251.96;110903;1250;23677;-75
2022/03/31 00:30:19;;;;;;;16.80;14.80;;;;;;;2.22;62.06;99252.73;110392;1256;22739;-76
2022/03/31 00:33:32;;;;;;;;;;;;;;;;;;;;;
2022/03/31 00:37:06;;;;;;;20.20;15.20;;;;;;;2.22;61.84;99248.62;110325;1256;23028;-75
2022/03/31 00:39:47;;;;;;;21.30;14.00;;;;;;;2.20;61.97;99246.86;109557;1264;23687;-76
2022/03/31 00:43:01;;;;;;;20.00;15.10;;;;;;;2.19;61.89;99250.40;109492;1263;23685;-75
2022/03/31 00:45:50;;;;;;;19.90;13.70;;;;;;;2.17;61.92;99249.92;109358;1267;23041;-76
2022/03/31 00:48:32;;;;;;;14.90;13.30;;;;;;;2.12;61.92;99246.37;109193;1264;21965;-76
2022/03/31 00:51:54;;;;;;;17.00;12.80;;;;;;;2.08;62.04;99249.02;109365;1264;21978;-77
2022/03/31 00:54:46;;;;;;;15.50;12.90;;;;;;;2.04;62.05;99243.30;109576;1264;21983;-76
2022/03/31 00:57:29;;;;;;;13.20;11.80;;;;;;;1.99;61.98;99239.55;109045;1267;22009;-76
2022/03/31 01:00:36;;;;;;;23.80;12.60;;;;;;;1.93;61.83;99236.80;108586;1274;21989;-76
2022/03/31 01:03:50;;;;;;;;;;;;;;;;;;;;;
2022/03/31 01:06:49;;;;;;;16.00;13.80;;;;;;;1.88;62.10;99239.00;108406;1277;22053;-76
2022/03/31 01:09:31;;;;;;;20.70;13.80;;;;;;;1.89;62.10;99240.79;108372;1279;22434;-75
2022/03/31 01:12:34;;;;;;;;;;;;;;;;;;;;;
2022/03/31 01:15:38;;;;;;;;;;;;;;;;;;;;;
2022/03/31 01:18:21;;;;;;;14.30;12.90;;;;;;;1.82;62.05;99249.13;109188;1264;24442;-75
2022/03/31 01:20:51;;;;;;;13.40;11.90;;;;;;;1.75;62.23;99245.05;109160;1264;24309;-75
2022/03/31 01:23:21;;;;;;;17.40;13.40;;;;;;;1.71;62.21;99243.30;109207;1264;23709;-75
2022/03/31 01:25:57;;;;;;;;;;;;;;;1.67;62.47;99243.00;109564;1260;21946;-75
2022/03/31 01:28:33;;;;;;;15.50;13.50;;;;;;;1.59;62.68;99234.64;109910;1261;23038;-76
2022/03/31 01:31:20;;;;;;;;;;;;;;;1.57;62.79;99234.81;109607;1263;23598;-76
2022/03/31 01:34:15;;;;;;;19.90;14.30;;;;;;;1.49;63.08;99234.04;110214;1256;23744;-76
2022/03/31 01:37:05;;;;;;;14.20;12.70;;;;;;;1.48;63.24;99236.34;110535;1251;21965;-76
2022/03/31 01:39:35;;;;;;;17.00;14.70;;;;;;;1.52;63.34;99232.71;110040;1258;21984;-76
2022/03/31 01:42:12;;;;;;;16.50;14.80;;;;;;;1.52;63.38;99232.48;109992;1255;21999;-76
2022/03/31 01:45:38;;;;;;;15.20;13.60;;;;;;;1.52;63.50;99232.70;110528;1256;23003;-76
2022/03/31 01:48:53;;;;;;;15.40;13.80;;;;;;;1.52;63.75;99231.63;109788;1260;21992;-76
2022/03/31 01:51:34;;;;;;;12.40;11.00;;;;;;;1.53;63.79;99227.38;109722;1261;22009;-76
2022/03/31 01:54:23;;;;;;;13.20;10.60;;;;;;;1.52;63.93;99227.20;109964;1262;22025;-76
2022/03/31 01:56:57;;;;;;;11.40;10.30;;;;;;;1.49;64.05;99230.02;110122;1260;22037;-75
2022/03/31 01:59:55;;;;;;;13.00;11.30;;;;;;;1.48;63.99;99231.00;109547;1262;21970;-77
2022/03/31 02:02:56;;;;;;;15.60;11.00;;;;;;;1.45;64.17;99233.55;109834;1261;21982;-77
2022/03/31 02:06:23;;;;;;;14.20;11.20;;;;;;;1.45;64.41;99229.67;109996;1259;23792;-75
2022/03/31 02:08:59;;;;;;;13.90;12.60;;;;;;;1.49;64.43;99226.23;109981;1259;23061;-75
2022/03/31 02:11:42;;;;;;;13.60;12.10;;;;;;;1.52;64.43;99225.73;110162;1259;23027;-75
2022/03/31 02:14:40;;;;;;;;;;;;;;;;;;;;;
2022/03/31 02:17:31;;;;;;;14.20;11.00;;;;;;;1.55;64.36;99226.04;109088;1267;23593;-75
2022/03/31 02:20:38;;;;;;;14.20;11.30;;;;;;;1.53;64.32;99227.42;108792;1270;23719;-74
2022/03/31 02:23:32;;;;;;;12.20;11.00;;;;;;;1.47;64.32;99224.80;108867;1271;21989;-75
2022/03/31 02:26:16;;;;;;;14.80;11.10;;;;;;;1.45;64.55;99223.66;108526;1273;21984;-75
2022/03/31 02:28:50;;;;;;;12.30;11.00;;;;;;;1.47;64.60;99229.17;108598;1274;22020;-75
2022/03/31 02:32:04;;;;;;;12.50;11.30;;;;;;;1.46;64.50;99230.33;108451;1273;21981;-75
2022/03/31 02:34:35;;;;;;;13.60;11.20;;;;;;;1.47;64.51;99230.61;108377;1276;23075;-75
2022/03/31 02:37:15;;;;;;;16.00;12.40;;;;;;;1.51;64.54;99230.23;108558;1275;23599;-75
2022/03/31 02:39:59;;;;;;;11.50;9.90;;;;;;;1.54;64.33;99226.63;108737;1270;22062;-75
2022/03/31 02:43:21;;;;;;;;;;;;;;;;;;;;;
2022/03/31 02:45:56;;;;;;;14.00;10.00;;;;;;;1.52;64.24;99236.01;109209;1266;23735;-75
2022/03/31 02:48:29;;;;;;;13.70;10.40;;;;;;;1.51;64.07;99237.68;109143;1267;24185;-75
2022/03/31 02:51:04;;;;;;;13.20;9.20;;;;;;;1.48;63.92;99238.79;110122;1258;21977;-75
2022/03/31 02:56:35;;;;;;;11.80;10.30;;;;;;;1.40;63.84;99238.45;110756;1250;21959;-75
2022/03/31 02:59:15;;;;;;;13.60;9.10;;;;;;;1.37;63.73;99238.50;110546;1250;23635;-76
2022/03/31 03:01:47;;;;;;;12.60;10.30;;;;;;;1.33;63.66;99242.04;110772;1251;22897;-76
2022/03/31 03:04:18;;;;;;;11.60;10.20;;;;;;;1.31;63.81;99237.48;110348;1256;23136;-76
2022/03/31 03:06:51;;;;;;;10.90;9.50;;;;;;;1.33;63.68;99237.00;110446;1253;22509;-76
2022/03/31 03:09:29;;;;;;;13.30;10.70;;;;;;;1.35;63.65;99238.35;110501;1256;22072;-77
2022/03/31 03:12:35;;;;;;;15.70;10.60;;;;;;;1.36;63.58;99239.64;109825;1259;22449;-75
2022/03/31 03:15:11;;;;;;;11.80;9.50;;;;;;;1.38;63.51;99235.98;109150;1265;21982;-76
2022/03/31 03:17:47;;;;;;;13.90;11.50;;;;;;;1.40;63.43;99241.77;109225;1265;23773;-75
2022/03/31 03:20:26;;;;;;;12.00;10.10;;;;;;;1.42;63.54;99242.64;109268;1265;22019;-74
2022/03/31 03:22:56;;;;;;;12.60;10.10;;;;;;;1.45;63.56;99241.84;109220;1267;22265;-75
2022/03/31 03:25:26;;;;;;;12.00;9.40;;;;;;;1.47;63.31;99246.05;109240;1265;21983;-75
2022/03/31 03:28:03;;;;;;;11.70;9.60;;;;;;;1.43;63.17;99239.95;109251;1265;22094;-75
2022/03/31 03:30:50;;;;;;;14.40;10.00;;;;;;;1.38;63.24;99239.82;109684;1257;21963;-75
2022/03/31 03:33:31;;;;;;;13.40;10.90;;;;;;;1.37;63.15;99241.63;110513;1250;21996;-75
2022/03/31 03:36:19;;;;;;;12.60;9.00;;;;;;;1.38;63.10;99241.20;110755;1252;21967;-75
2022/03/31 03:39:19;;;;;;;;;;;;;;;;;;;;;
2022/03/31 03:42:07;;;;;;;9.40;8.40;;;;;;;1.33;62.97;99238.74;110494;1256;21998;-75
2022/03/31 03:44:50;;;;;;;11.20;9.20;;;;;;;1.34;62.93;99238.66;110404;1255;21985;-75
2022/03/31 03:47:33;;;;;;;14.90;9.30;;;;;;;1.34;63.00;99239.48;109412;1260;21966;-75
2022/03/31 03:50:11;;;;;;;11.40;8.80;;;;;;;1.34;62.91;99238.62;109534;1262;23633;-76
2022/03/31 03:53:26;;;;;;;14.00;9.60;;;;;;;1.29;62.86;99237.73;109310;1265;21989;-76
2022/03/31 03:56:15;;;;;;;14.00;8.90;;;;;;;1.25;62.93;99238.90;109208;1266;21994;-76
2022/03/31 03:59:04;;;;;;;13.60;9.30;;;;;;;1.23;62.90;99239.23;109293;1262;23086;-77
2022/03/31 04:02:06;;;;;;;;;;;;;;;;;;;;;
2022/03/31 04:05:43;;;;;;;11.80;9.60;;;;;;;1.20;62.82;99248.54;109771;1256;22956;-75
2022/03/31 04:08:35;;;;;;;12.60;9.30;;;;;;;1.20;62.83;99250.61;110390;1256;22075;-76
2022/03/31 04:11:16;;;;;;;11.00;9.40;;;;;;;1.21;62.79;99248.95;110632;1250;22484;-74
2022/03/31 04:13:51;;;;;;;12.80;9.30;;;;;;;1.23;62.69;99250.35;110209;1256;23335;-75
2022/03/31 04:16:27;;;;;;;12.00;9.50;;;;;;;1.22;62.67;99249.23;109672;1262;22000;-76
2022/03/31 04:19:09;;;;;;;13.20;9.90;;;;;;;1.20;62.64;99244.92;109654;1262;22079;-75
2022/03/31 04:21:47;;;;;;;15.70;10.60;;;;;;;1.18;62.63;99245.23;109648;1264;22972;-76
2022/03/31 04:24:16;;;;;;;15.00;10.90;;;;;;;1.18;62.82;99246.98;109198;1268;22089;-76
2022/03/31 04:26:58;;;;;;;15.30;11.40;;;;;;;1.19;62.86;99244.48;109028;1267;21976;-76
2022/03/31 04:29:35;;;;;;;17.80;10.20;;;;;;;1.17;62.59;99243.60;109081;1268;23725;-76
2022/03/31 04:32:20;;;;;;;13.40;10.60;;;;;;;1.15;62.57;99241.38;109417;1262;22429;-76
2022/03/31 04:35:08;;;;;;;17.20;10.50;;;;;;;1.14;62.71;99243.38;109966;1256;23024;-75
2022/03/31 04:37:38;;;;;;;19.20;12.30;;;;;;;1.17;62.83;99244.42;109504;1264;21985;-74
2022/03/31 04:40:10;;;;;;;13.30;9.20;;;;;;;1.23;62.80;99249.98;108750;1271;22869;-75
2022/03/31 04:43:01;;;;;;;11.00;9.60;;;;;;;1.24;62.63;99246.30;108858;1267;21990;-75
2022/03/31 04:45:33;;;;;;;12.80;9.80;;;;;;;1.21;62.57;99251.23;108522;1271;22581;-75
2022/03/31 04:48:05;;;;;;;11.80;9.00;;;;;;;1.18;62.60;99253.71;108523;1273;23062;-76
2022/03/31 04:50:38;;;;;;;12.90;10.00;;;;;;;1.16;62.63;99255.42;108661;1270;23064;-76
2022/03/31 04:53:09;;;;;;;12.60;9.60;;;;;;;1.16;62.68;99259.27;108539;1270;22019;-74
2022/03/31 04:55:41;;;;;;;15.10;9.50;;;;;;;1.17;62.68;99263.73;108678;1268;21995;-74
2022/03/31 04:58:12;;;;;;;16.00;10.40;;;;;;;1.15;62.57;99268.58;109466;1259;22038;-73
2022/03/31 05:00:52;;;;;;;15.20;10.80;;;;;;;1.15;62.58;99274.08;110003;1256;22083;-74
2022/03/31 05:03:37;;;;;;;14.80;9.60;;;;;;;1.16;62.51;99275.39;110573;1250;21966;-74
2022/03/31 05:06:15;;;;;;;12.60;10.20;;;;;;;1.18;62.50;99274.73;110448;1253;23039;-75
2022/03/31 05:08:55;;;;;;;12.50;9.80;;;;;;;1.22;62.52;99278.88;110568;1250;22743;-75
2022/03/31 05:11:54;;;;;;;12.20;9.50;;;;;;;1.24;62.39;99278.71;110566;1250;22059;-77
2022/03/31 05:14:42;;;;;;;11.90;8.50;;;;;;;1.22;62.36;99279.59;110833;1250;21957;-75
2022/03/31 05:17:18;;;;;;;13.40;9.30;;;;;;;1.20;62.31;99274.09;110562;1250;22062;-74
2022/03/31 05:19:49;;;;;;;13.80;8.90;;;;;;;1.20;62.32;99279.30;110585;1250;22916;-75
2022/03/31 05:22:19;;;;;;;11.60;8.90;;;;;;;1.19;62.25;99284.86;110613;1250;21975;-74
2022/03/31 05:24:58;;;;;;;15.60;9.90;;;;;;;1.18;62.18;99284.13;110676;1250;21952;-75
2022/03/31 05:27:28;;;;;;;14.90;10.50;;;;;;;1.18;62.21;99284.95;110725;1250;21989;-75
2022/03/31 05:30:00;;;;;;;14.00;10.50;;;;;;;1.24;62.35;99289.10;110662;1252;22535;-74
2022/03/31 05:32:29;;;;;;;10.10;8.70;;;;;;;1.31;62.31;99292.02;110486;1251;21973;-75
2022/03/31 05:35:00;;;;;;;16.60;9.30;;;;;;;1.36;62.18;99295.34;110105;1256;22924;-74
2022/03/31 05:37:32;;;;;;;12.20;9.30;;;;;;;1.39;61.90;99295.64;110264;1257;23651;-75
2022/03/31 05:40:10;;;;;;;12.40;9.70;;;;;;;1.38;61.77;99294.98;110160;1254;23641;-74
2022/03/31 05:42:40;;;;;;;13.10;9.20;;;;;;;1.35;61.74;99297.85;110396;1256;22482;-75
2022/03/31 05:45:26;;;;;;;;;;;;;;;;;;;;;
2022/03/31 05:48:52;;;;;;;13.60;9.70;;;;;;;1.40;62.15;99307.63;109461;1263;22241;-76
2022/03/31 05:51:46;;;;;;;12.50;10.60;;;;;;;1.49;62.12;99304.11;109321;1263;23226;-76
2022/03/31 05:54:45;;;;;;;12.90;9.20;;;;;;;1.57;61.95;99304.30;109849;1260;23601;-77
2022/03/31 05:57:37;;;;;;;15.90;11.40;;;;;;;1.60;61.65;99308.31;109946;1260;21969;-77
2022/03/31 06:00:33;;;;;;;15.50;11.60;;;;;;;1.62;61.61;99306.23;109797;1261;21980;-76
2022/03/31 06:03:23;;;;;;;;;;;;;;;;;;;;;
2022/03/31 06:06:03;;;;;;;13.80;9.70;;;;;;;1.68;61.10;99304.48;109991;1255;23147;-75
2022/03/31 06:08:34;;;;;;;;;;;;;;;1.70;60.90;99304.50;110551;1252;22120;-75
2022/03/31 06:11:09;;;;;;;15.50;11.20;;;;;;;1.69;61.01;99305.45;110803;1251;22357;-75
2022/03/31 06:13:38;;;;;;;17.80;12.80;;;;;;;1.73;60.98;99306.88;110431;1250;23031;-75
2022/03/31 06:16:10;;;;;;;15.00;11.20;;;;;;;1.78;60.85;99308.49;110223;1259;22423;-75
2022/03/31 06:18:42;;;;;;;14.00;10.50;;;;;;;1.80;60.65;99303.79;109760;1262;23051;-75
2022/03/31 06:21:18;;;;;;;12.10;10.00;;;;;;;1.83;60.56;99303.65;109663;1263;22343;-77
2022/03/31 06:23:51;;;;;;;11.70;8.90;;;;;;;1.83;60.43;99304.16;109392;1262;22423;-76
2022/03/31 06:26:33;;;;;;;14.50;9.60;;;;;;;1.83;60.37;99304.33;109667;1262;21949;-76
2022/03/31 06:29:08;;;;;;;13.70;10.30;;;;;;;1.81;60.10;99300.40;109680;1262;21959;-76
2022/03/31 06:31:43;;;;;;;11.80;8.30;;;;;;;1.79;60.07;99302.83;109702;1262;23683;-76
2022/03/31 06:34:15;;;;;;;16.30;11.00;;;;;;;1.76;59.94;99307.08;109684;1256;22730;-76
2022/03/31 06:36:51;;;;;;;15.90;11.60;;;;;;;1.76;60.08;99306.61;110561;1251;22590;-77
2022/03/31 06:39:29;;;;;;;16.80;11.60;;;;;;;1.78;60.15;99307.75;110389;1256;22757;-75
2022/03/31 06:42:14;;;;;;;15.90;11.00;;;;;;;1.78;59.94;99311.93;110194;1257;21976;-77
2022/03/31 06:44:49;;;;;;;19.10;11.40;;;;;;;1.78;59.90;99317.13;110267;1256;22028;-76
2022/03/31 06:47:43;;;;;;;14.00;10.60;;;;;;;1.81;60.00;99317.46;109969;1256;304933;-76
2022/03/31 06:50:18;;;;;;;15.50;10.90;;;;;;;1.88;60.04;99323.05;110415;1257;22179;-76
2022/03/31 06:52:55;;;;;;;14.00;10.90;;;;;;;1.90;59.83;99323.88;110664;1256;23584;-76
2022/03/31 06:55:29;;;;;;;17.40;13.60;;;;;;;1.92;59.89;99326.45;110331;1256;23135;-76
2022/03/31 06:58:10;;;;;;;22.90;12.80;;;;;;;1.94;59.83;99329.45;110081;1258;22353;-76
2022/03/31 07:00:48;;;;;;;16.80;13.20;;;;;;;1.89;59.61;99334.55;110297;1258;21949;-75
2022/03/31 07:03:53;;;;;;;22.30;14.50;;;;;;;1.85;59.72;99332.30;110472;1256;21978;-75
2022/03/31 07:06:26;;;;;;;14.00;9.90;;;;;;;1.88;60.09;99332.94;110340;1258;21978;-75
2022/03/31 07:09:04;;;;;;;16.20;11.70;;;;;;;1.88;59.95;99336.38;109667;1262;21964;-76
2022/03/31 07:11:44;;;;;;;;;;;;;;;1.87;59.81;99339.44;109474;1262;23564;-76
2022/03/31 07:14:20;;;;;;;16.60;10.80;;;;;;;1.81;60.02;99345.33;109682;1262;22375;-75
2022/03/31 07:16:49;;;;;;;15.00;11.10;;;;;;;1.82;60.00;99350.28;109593;1262;23752;-77
2022/03/31 07:19:27;;;;;;;12.80;10.50;;;;;;;1.89;60.17;99351.23;109244;1267;22091;-77
2022/03/31 07:21:58;;;;;;;16.80;11.30;;;;;;;1.97;60.07;99350.91;109143;1268;23991;-76
2022/03/31 07:24:28;;;;;;;15.80;11.60;;;;;;;2.02;59.86;99350.11;109437;1265;22764;-81
2022/03/31 07:27:03;;;;;;;18.40;10.10;;;;;;;2.07;59.83;99348.39;109611;1262;23284;-74
2022/03/31 07:29:51;;;;;;;13.40;9.80;;;;;;;2.12;59.87;99349.89;110035;1262;23671;-81
2022/03/31 07:32:33;;;;;;;15.90;10.60;;;;;;;2.17;59.71;99342.12;109608;1267;23080;-78
2022/03/31 07:35:05;;;;;;;14.20;10.70;;;;;;;2.20;59.80;99339.08;109352;1267;22250;-81
2022/03/31 07:37:42;;;;;;;14.00;10.40;;;;;;;2.25;59.73;99335.86;109688;1261;23703;-82
2022/03/31 07:40:21;;;;;;;15.40;10.70;;;;;;;2.32;59.83;99336.63;110394;1257;21993;-81
2022/03/31 07:42:53;;;;;;;12.40;10.80;;;;;;;2.39;59.69;99334.11;110677;1254;21979;-82
2022/03/31 07:45:26;;;;;;;17.00;11.70;;;;;;;2.45;59.67;99337.71;110583;1256;22036;-81
2022/03/31 07:48:03;;;;;;;12.90;11.20;;;;;;;2.52;59.58;99338.48;110758;1256;21956;-82
2022/03/31 07:50:46;;;;;;;15.40;11.00;;;;;;;2.59;59.40;99345.08;110900;1251;21961;-81
2022/03/31 07:53:17;;;;;;;13.70;10.60;;;;;;;2.59;58.95;99345.98;110584;1252;22005;-77
2022/03/31 07:55:55;;;;;;;13.60;9.80;;;;;;;2.57;58.64;99349.11;110981;1250;23732;-81
2022/03/31 07:58:59;;;;;;;14.80;9.70;;;;;;;2.55;58.83;99346.02;111123;1251;22994;-82
2022/03/31 08:01:43;;;;;;;13.60;10.80;;;;;;;2.63;59.17;99331.52;110695;1257;24027;-84
2022/03/31 08:04:16;;;;;;;14.30;10.20;;;;;;;2.76;59.18;99326.10;110390;1259;22030;-83
2022/03/31 08:06:56;;;;;;;15.00;12.30;;;;;;;2.89;58.98;99336.58;110331;1257;22350;-82
2022/03/31 08:09:36;;;;;;;12.70;10.30;;;;;;;2.95;58.32;99350.61;109887;1262;21982;-82
2022/03/31 08:12:20;;;;;;;14.40;9.30;;;;;;;2.91;58.00;99340.71;110201;1260;22029;-82
2022/03/31 08:14:55;;;;;;;11.10;7.80;;;;;;;2.91;58.08;99334.24;109469;1267;22292;-82
2022/03/31 08:17:38;;;;;;;12.10;8.50;;;;;;;2.90;57.90;99336.60;109453;1267;23847;-82
2022/03/31 08:20:17;;;;;;;11.60;9.00;;;;;;;2.87;57.93;99339.69;109459;1267;22002;-82
2022/03/31 08:22:52;;;;;;;11.90;9.90;;;;;;;2.86;57.84;99341.59;109196;1271;21978;-82
2022/03/31 08:25:26;;;;;;;12.00;9.70;;;;;;;2.83;57.89;99343.51;109072;1271;22023;-82
2022/03/31 08:27:57;;;;;;;11.30;9.30;;;;;;;2.87;58.03;99343.85;109456;1266;22404;-83
2022/03/31 08:30:35;;;;;;;15.80;10.70;;;;;;;2.93;58.08;99350.64;109643;1265;23089;-81
2022/03/31 08:33:11;;;;;;;16.60;11.10;;;;;;;2.96;57.97;99350.00;109787;1261;22496;-81
2022/03/31 08:35:46;;;;;;;14.70;12.00;;;;;;;2.97;57.84;99346.75;109608;1265;22098;-82
2022/03/31 08:38:22;;;;;;;12.90;9.90;;;;;;;2.98;57.83;99346.14;109488;1262;21984;-82
2022/03/31 08:40:54;;;;;;;14.10;11.30;;;;;;;2.98;57.61;99352.22;109879;1257;21984;-77
2022/03/31 08:43:30;;;;;;;17.40;12.40;;;;;;;2.95;57.54;99351.65;109979;1259;21988;-76
2022/03/31 08:46:08;;;;;;;14.30;12.00;;;;;;;2.91;57.46;99355.70;109954;1259;21975;-76
2022/03/31 08:48:38;;;;;;;14.20;11.30;;;;;;;2.88;57.56;99354.57;109816;1262;22032;-76
2022/03/31 08:51:08;;;;;;;16.00;11.40;;;;;;;2.90;57.77;99348.14;109071;1268;23095;-76
2022/03/31 08:53:38;;;;;;;11.10;9.30;;;;;;;2.96;57.90;99345.34;109424;1262;23666;-77
2022/03/31 08:56:10;;;;;;;12.40;9.10;;;;;;;3.00;57.85;99348.94;109889;1262;23043;-76
2022/03/31 08:58:45;;;;;;;11.60;9.20;;;;;;;3.04;57.74;99343.09;110031;1260;21996;-77
2022/03/31 09:01:16;;;;;;;11.60;9.50;;;;;;;3.08;57.60;99335.47;109972;1259;24025;-77
2022/03/31 09:03:48;;;;;;;12.80;10.20;;;;;;;3.14;57.71;99341.48;110536;1256;22195;-78
2022/03/31 09:06:39;;;;;;;14.20;10.80;;;;;;;3.21;57.55;99344.34;110543;1256;23686;-77
2022/03/31 09:09:11;;;;;;;11.70;10.00;;;;;;;3.24;57.33;99343.14;110566;1250;21963;-76
2022/03/31 09:11:50;;;;;;;12.60;9.70;;;;;;;3.24;57.21;99341.99;110704;1251;23602;-76
2022/03/31 09:14:31;;;;;;;12.90;9.60;;;;;;;3.30;57.50;99337.40;110678;1251;21958;-77
2022/03/31 09:17:15;;;;;;;14.90;12.60;;;;;;;3.40;57.55;99335.96;110692;1251;23710;-77
2022/03/31 09:19:44;;;;;;;11.10;8.60;;;;;;;3.47;57.26;99335.98;110823;1250;23042;-77
2022/03/31 09:22:14;;;;;;;9.30;8.00;;;;;;;3.47;56.91;99339.38;110285;1260;22304;-78
2022/03/31 09:24:43;;;;;;;10.10;8.10;;;;;;;3.47;56.84;99342.54;109713;1262;21985;-77
2022/03/31 09:27:15;;;;;;;15.20;10.30;;;;;;;3.49;57.03;99338.52;109533;1262;22054;-77
2022/03/31 09:29:47;;;;;;;14.10;12.20;;;;;;;3.58;57.31;99331.05;109424;1261;22069;-78
2022/03/31 09:32:19;;;;;;;18.80;12.60;;;;;;;3.72;57.62;99331.89;109990;1262;23667;-77
2022/03/31 09:34:52;;;;;;;18.70;10.10;;;;;;;3.89;57.49;99329.47;109794;1264;23677;-78
2022/03/31 09:37:37;;;;;;;18.00;11.30;;;;;;;4.05;57.43;99331.05;109425;1265;21988;-77
2022/03/31 09:40:19;;;;;;;20.20;12.30;;;;;;;4.20;57.14;99335.45;109267;1260;23601;-78
2022/03/31 09:43:00;;;;;;;10.80;9.00;;;;;;;4.34;57.05;99332.19;110396;1254;23689;-76
2022/03/31 09:45:51;;;;;;;11.90;9.10;;;;;;;4.52;56.95;99337.34;110521;1256;22323;-77
2022/03/31 09:48:27;;;;;;;11.70;8.60;;;;;;;4.58;56.02;99341.95;110392;1253;21977;-77
2022/03/31 09:50:59;;;;;;;9.40;8.40;;;;;;;4.54;55.42;99344.60;109532;1262;23596;-75
2022/03/31 09:53:34;;;;;;;13.30;9.00;;;;;;;4.46;55.16;99347.34;109407;1265;22076;-76
2022/03/31 09:56:05;;;;;;;12.20;9.50;;;;;;;4.41;55.35;99349.92;109889;1259;22772;-77
2022/03/31 09:58:39;;;;;;;11.00;8.70;;;;;;;4.44;55.60;99347.72;110004;1261;24443;-77
2022/03/31 10:01:08;;;;;;;11.70;8.90;;;;;;;4.46;55.28;99347.66;109798;1259;22079;-77
2022/03/31 10:03:41;;;;;;;13.30;9.30;;;;;;;4.41;55.18;99349.95;109986;1260;23706;-77
2022/03/31 10:06:16;;;;;;;15.70;9.60;;;;;;;4.43;55.43;99354.02;109987;1259;22129;-77
2022/03/31 10:08:48;;;;;;;14.30;9.70;;;;;;;4.45;55.14;99357.58;110001;1256;21978;-76
2022/03/31 10:11:28;;;;;;;12.00;9.20;;;;;;;4.44;55.23;99359.61;109783;1259;21963;-76
2022/03/31 10:14:08;;;;;;;14.20;8.60;;;;;;;4.45;55.24;99369.89;110054;1257;21980;-76
2022/03/31 10:17:01;;;;;;;10.90;8.20;;;;;;;4.48;55.15;99360.92;110380;1257;22712;-76
2022/03/31 10:19:40;;;;;;;13.50;9.30;;;;;;;4.54;55.40;99350.20;110144;1256;22031;-77
2022/03/31 10:25:08;;;;;;;13.40;8.40;;;;;;;4.87;55.68;99347.05;109663;1262;23081;-76
2022/03/31 10:27:45;;;;;;;14.60;10.30;;;;;;;5.06;55.58;99340.71;109735;1262;21977;-76
2022/03/31 10:30:32;;;;;;;13.40;9.50;;;;;;;5.22;55.12;99339.83;110188;1258;23582;-76
2022/03/31 10:33:08;;;;;;;13.60;8.70;;;;;;;5.34;54.82;99338.95;109317;1263;23605;-76
2022/03/31 10:35:45;;;;;;;13.50;9.00;;;;;;;5.37;54.09;99343.84;109541;1263;21976;-76
2022/03/31 10:38:23;;;;;;;14.80;8.30;;;;;;;5.32;53.70;99337.34;108998;1267;23144;-77
2022/03/31 10:41:11;;;;;;;12.90;7.50;;;;;;;5.32;53.79;99338.98;108809;1271;21995;-76
2022/03/31 10:43:48;;;;;;;10.30;8.30;;;;;;;5.27;53.56;99332.88;109209;1267;22323;-77
2022/03/31 10:46:20;;;;;;;15.30;8.80;;;;;;;5.20;53.54;99326.57;109047;1267;22404;-76
2022/03/31 10:48:58;;;;;;;15.50;8.70;;;;;;;5.23;53.90;99328.53;109169;1267;22186;-77
2022/03/31 10:51:51;;;;;;;11.30;8.30;;;;;;;5.26;53.76;99328.55;108886;1267;21990;-76
2022/03/31 10:54:33;;;;;;;11.80;8.80;;;;;;;5.24;53.53;99326.15;109028;1267;21987;-77
2022/03/31 10:57:15;;;;;;;13.40;7.80;;;;;;;5.23;53.51;99319.27;109465;1262;22090;-76
2022/03/31 10:59:49;;;;;;;12.60;8.10;;;;;;;5.24;53.58;99322.98;110132;1257;23030;-76
2022/03/31 11:02:25;;;;;;;11.70;8.20;;;;;;;5.21;53.38;99317.70;109566;1260;21966;-76
2022/03/31 11:04:58;;;;;;;13.10;8.60;;;;;;;5.16;53.39;99313.30;109392;1262;22362;-76
2022/03/31 11:07:31;;;;;;;11.90;9.20;;;;;;;5.17;53.76;99304.55;109715;1262;21988;-75
2022/03/31 11:10:20;;;;;;;10.30;8.30;;;;;;;5.27;54.13;99304.55;110068;1259;22544;-78
2022/03/31 11:12:53;;;;;;;14.10;9.80;;;;;;;5.37;54.12;99296.86;110058;1257;23596;-76
2022/03/31 11:15:24;;;;;;;14.60;11.50;;;;;;;5.50;54.23;99296.70;109942;1257;22844;-76
2022/03/31 11:18:01;;;;;;;14.40;9.10;;;;;;;5.62;53.90;99295.27;110263;1257;23688;-76
2022/03/31 11:20:34;;;;;;;14.00;8.90;;;;;;;5.67;53.42;99296.55;110233;1256;23062;-77
2022/03/31 11:23:31;;;;;;;10.70;8.00;;;;;;;5.64;52.92;99297.70;110167;1257;21971;-76
2022/03/31 11:26:03;;;;;;;14.40;8.60;;;;;;;5.61;53.02;99299.43;110071;1257;21963;-77
2022/03/31 11:28:36;;;;;;;13.80;7.80;;;;;;;5.62;53.02;99294.29;110755;1251;22007;-78
2022/03/31 11:31:17;;;;;;;14.70;8.40;;;;;;;5.63;52.95;99283.48;110610;1250;22017;-77
2022/03/31 11:33:49;;;;;;;11.50;7.90;;;;;;;5.69;53.16;99284.96;110035;1257;23138;-77
2022/03/31 11:36:38;;;;;;;13.40;8.20;;;;;;;5.77;53.12;99283.16;110005;1257;22174;-77
2022/03/31 11:39:15;;;;;;;18.40;7.90;;;;;;;5.85;52.84;99282.20;110135;1257;21967;-76
2022/03/31 11:42:25;;;;;;;11.90;7.50;;;;;;;5.83;52.28;99291.27;110202;1257;22301;-77
2022/03/31 11:45:48;;;;;;;;;;;;;;;5.75;52.09;99284.15;109568;1264;22034;-77
2022/03/31 11:48:41;;;;;;;12.40;7.20;;;;;;;5.68;52.25;99293.05;109403;1265;22798;-77
2022/03/31 11:51:35;;;;;;;9.60;6.80;;;;;;;5.65;52.09;99282.77;109429;1260;23578;-77
2022/03/31 11:54:08;;;;;;;11.20;7.50;;;;;;;5.65;52.14;99283.40;110298;1257;23766;-77
2022/03/31 11:56:44;;;;;;;18.30;9.30;;;;;;;5.67;52.10;99276.45;110269;1257;21969;-77
2022/03/31 11:59:24;;;;;;;12.80;9.00;;;;;;;5.72;52.19;99276.04;110286;1256;22963;-77
2022/03/31 12:02:15;;;;;;;14.10;7.80;;;;;;;5.81;52.18;99280.81;110262;1257;21970;-77
2022/03/31 12:04:49;;;;;;;15.10;7.80;;;;;;;5.83;51.80;99290.44;110233;1258;23604;-76
2022/03/31 12:07:25;;;;;;;14.10;7.40;;;;;;;5.80;51.33;99280.98;110226;1260;23060;-77
2022/03/31 12:10:02;;;;;;;13.70;7.80;;;;;;;5.78;51.48;99278.81;110153;1260;24288;-76
2022/03/31 12:12:32;;;;;;;12.80;7.50;;;;;;;5.80;51.37;99276.48;109470;1261;21963;-77
2022/03/31 12:15:04;;;;;;;15.40;7.60;;;;;;;5.81;51.24;99282.84;109830;1260;21979;-77
2022/03/31 12:17:34;;;;;;;14.80;7.30;;;;;;;5.81;51.21;99277.20;109967;1255;21959;-78
2022/03/31 12:20:13;;;;;;;10.30;7.40;;;;;;;5.84;51.19;99275.86;109981;1262;21973;-77
2022/03/31 12:22:52;;;;;;;11.40;8.30;;;;;;;5.87;51.13;99269.54;109644;1263;22131;-78
2022/03/31 12:25:34;;;;;;;10.40;7.50;;;;;;;5.92;51.14;99274.13;109014;1267;21989;-77
2022/03/31 12:28:09;;;;;;;9.90;7.90;;;;;;;5.93;50.74;99271.79;109306;1267;21981;-77
2022/03/31 12:30:56;;;;;;;14.20;8.50;;;;;;;5.87;50.62;99269.58;109135;1267;21986;-77
2022/03/31 12:33:34;;;;;;;13.10;8.70;;;;;;;5.88;50.69;99269.52;109522;1263;22248;-77
2022/03/31 12:36:43;;;;;;;;;;;;;;;;;;;;;
2022/03/31 12:39:18;;;;;;;9.00;6.10;;;;;;;5.84;50.28;99264.47;110244;1257;24562;-77
2022/03/31 12:42:11;;;;;;;10.00;8.10;;;;;;;5.79;50.22;99260.50;110376;1257;23700;-78
2022/03/31 12:44:45;;;;;;;8.30;7.40;;;;;;;5.78;50.21;99260.99;110599;1250;21965;-75
2022/03/31 12:47:22;;;;;;;11.30;7.10;;;;;;;5.76;50.25;99260.63;110611;1249;21986;-76
2022/03/31 12:49:52;;;;;;;8.30;6.50;;;;;;;5.76;50.13;99257.78;110739;1250;21960;-77
2022/03/31 12:52:23;;;;;;;13.30;9.40;;;;;;;5.76;50.09;99256.99;110629;1251;23587;-77
2022/03/31 12:54:59;;;;;;;15.00;8.40;;;;;;;5.79;50.17;99258.23;110674;1250;22012;-77
2022/03/31 12:57:30;;;;;;;17.50;9.90;;;;;;;5.82;50.13;99254.73;110208;1258;22035;-76